Penguin Arrow — C6PA6 — position and weather

sailwx.info

Track history (hours):
 
Tides and Currents Weather Stations Pressure Air Temp Water Temp Dewpoint Dewpoint Depression Visibility Wind Speed Wind Dir Waves Ship Positions

Penguin Arrow

Last reported at 2014-Jul-21 20:08 UTC. Time now 2014-Jul-30 15:12 UTC.
Position S 13°06' W 038°35'.
Warning: this ship's position is 8 days out of date.

Length 200 m; draft 9.8 m.

Type: Cargo ship. MMSI: 309927000.

Date/timePositionNaut miles runAvg speedWind from/ knotsBaromVisibWave heightAir tempDewpointWater temp
2014-Jul-21 20:08S 13°06' W 038°35'712.5
2014-Jul-21 19:34S 12°59' W 038°33'6 5.8
2014-Jul-21 18:33S 12°54' W 038°33'8 7.6
2014-Jul-21 17:33S 12°47' W 038°29'0 0.0
2014-Jul-21 16:32S 12°47' W 038°29'0 0.0
2014-Jul-20 09:28S 12°47' W 038°29'0 0.0
2014-Jul-20 00:22S 12°47' W 038°29'0 0.0
2014-Jul-19 23:22S 12°47' W 038°29'0 0.0
2014-Jul-19 10:33S 12°47' W 038°29'7 7.0
2014-Jul-19 09:33S 12°53' W 038°33'8 7.9
2014-Jul-19 08:33S 13°00' W 038°34'5 5.4
2014-Jul-19 07:33S 13°06' W 038°34'  
Track history (hours):
 
Tides and Currents Weather Stations Pressure Air Temp Water Temp Dewpoint Dewpoint Depression Visibility Wind Speed Wind Dir Waves Ship Positions

Penguin Arrow

Last reported at 2014-Jul-21 20:08 UTC. Time now 2014-Jul-30 15:12 UTC.
Position S 13°06' W 038°35'.
Warning: this ship's position is 8 days out of date.

Length 200 m; draft 9.8 m.

Type: Cargo ship. MMSI: 309927000.

Date/timePositionNaut miles runAvg speedWind from/ knotsBaromVisibWave heightAir tempDewpointWater temp
2014-Jul-21 20:08S 13°06' W 038°35'712.5
2014-Jul-21 19:34S 12°59' W 038°33'6 5.8
2014-Jul-21 18:33S 12°54' W 038°33'8 7.6
2014-Jul-21 17:33S 12°47' W 038°29'0 0.0
2014-Jul-21 16:32S 12°47' W 038°29'0 0.0
2014-Jul-20 09:28S 12°47' W 038°29'0 0.0
2014-Jul-20 00:22S 12°47' W 038°29'0 0.0
2014-Jul-19 23:22S 12°47' W 038°29'0 0.0
2014-Jul-19 10:33S 12°47' W 038°29'7 7.0
2014-Jul-19 09:33S 12°53' W 038°33'8 7.9
2014-Jul-19 08:33S 13°00' W 038°34'5 5.4
2014-Jul-19 07:33S 13°06' W 038°34'  

Dump ship's entire track history